BAW1B EGLL-KBOS
Flight info
| Callsign | BAW1B |
|---|---|
| Flight time | N/A |
| Altitude | 38000 |
| Route | CPT L9 BUCGO DCT FELCA DCT OFSOX DCT SLANY DCT MALOT/M084F380 NATE JOOPY/N0480F380 N336B TOPPS DCT AJJAY OOSHN5 |
| Aircraft | A388/J-SADE2E3FGHIJ3J4J5M1RWXY/LB1D1 |
Departure
| Time | 2026-05-07 08:22 |
|---|---|
| Airport | London Heathrow Airport (EGLL) |
Arrival
| Time | N/A |
|---|---|
| Airport | Boston Logan International Airport (KBOS) |
| Time | Latitude | Longitude | Altitude | Speed | Heading |
|---|---|---|---|---|---|
| 2026-05-07 07:32 | 51.47054 | -0.47496 | 92 ft | 0 kts | 270° |
| 2026-05-07 08:11 | 51.47054 | -0.47487 | 92 ft | 4 kts | 270° |
| 2026-05-07 08:11 | 51.47055 | -0.47444 | 92 ft | 4 kts | 270° |
| 2026-05-07 08:11 | 51.47055 | -0.47409 | 92 ft | 4 kts | 261° |
| 2026-05-07 08:11 | 51.47063 | -0.47377 | 92 ft | 4 kts | 229° |
| 2026-05-07 08:12 | 51.47080 | -0.47359 | 93 ft | 4 kts | 195° |
| 2026-05-07 08:12 | 51.47104 | -0.47355 | 94 ft | 3 kts | 180° |
| 2026-05-07 08:12 | 51.47112 | -0.47355 | 93 ft | 0 kts | 180° |
| 2026-05-07 08:15 | 51.47101 | -0.47355 | 94 ft | 4 kts | 180° |
| 2026-05-07 08:15 | 51.47064 | -0.47354 | 94 ft | 7 kts | 180° |
| 2026-05-07 08:15 | 51.47007 | -0.47354 | 95 ft | 9 kts | 180° |
| 2026-05-07 08:16 | 51.46938 | -0.47353 | 95 ft | 11 kts | 180° |
| 2026-05-07 08:16 | 51.46866 | -0.47353 | 95 ft | 9 kts | 180° |
| 2026-05-07 08:16 | 51.46799 | -0.47352 | 95 ft | 9 kts | 180° |
| 2026-05-07 08:16 | 51.46751 | -0.47393 | 96 ft | 8 kts | 243° |
| 2026-05-07 08:17 | 51.46745 | -0.47493 | 94 ft | 11 kts | 270° |
| 2026-05-07 08:17 | 51.46745 | -0.47630 | 93 ft | 14 kts | 269° |
| 2026-05-07 08:17 | 51.46743 | -0.47795 | 92 ft | 16 kts | 269° |
| 2026-05-07 08:17 | 51.46743 | -0.47968 | 92 ft | 16 kts | 270° |
| 2026-05-07 08:18 | 51.46743 | -0.48175 | 93 ft | 15 kts | 270° |
| 2026-05-07 08:18 | 51.46743 | -0.48344 | 93 ft | 16 kts | 270° |
| 2026-05-07 08:18 | 51.46742 | -0.48525 | 93 ft | 16 kts | 270° |
| 2026-05-07 08:18 | 51.46742 | -0.48670 | 92 ft | 10 kts | 267° |
| 2026-05-07 08:19 | 51.46704 | -0.48744 | 96 ft | 9 kts | 189° |
| 2026-05-07 08:19 | 51.46648 | -0.48753 | 94 ft | 5 kts | 187° |
| 2026-05-07 08:19 | 51.46626 | -0.48760 | 95 ft | 0 kts | 193° |
| 2026-05-07 08:20 | 51.46625 | -0.48760 | 95 ft | 1 kts | 193° |
| 2026-05-07 08:20 | 51.46607 | -0.48767 | 95 ft | 5 kts | 194° |
| 2026-05-07 08:20 | 51.46564 | -0.48787 | 93 ft | 8 kts | 192° |
| 2026-05-07 08:21 | 51.46513 | -0.48775 | 97 ft | 7 kts | 143° |
| 2026-05-07 08:21 | 51.46481 | -0.48706 | 97 ft | 8 kts | 108° |
| 2026-05-07 08:21 | 51.46477 | -0.48605 | 96 ft | 14 kts | 89° |
| 2026-05-07 08:21 | 51.46480 | -0.48078 | 92 ft | 85 kts | 89° |
| 2026-05-07 08:22 | 51.46480 | -0.46781 | 95 ft | 143 kts | 89° |
| 2026-05-07 08:22 | 51.46494 | -0.44998 | 159 ft | 171 kts | 90° |
| 2026-05-07 08:22 | 51.46519 | -0.43103 | 638 ft | 169 kts | 90° |
| 2026-05-07 08:22 | 51.46519 | -0.41243 | 1159 ft | 168 kts | 96° |
| 2026-05-07 08:23 | 51.46045 | -0.39509 | 1456 ft | 179 kts | 136° |
| 2026-05-07 08:23 | 51.44895 | -0.38616 | 1595 ft | 196 kts | 174° |
| 2026-05-07 08:23 | 51.43523 | -0.39071 | 1766 ft | 217 kts | 210° |
| 2026-05-07 08:23 | 51.42298 | -0.40685 | 2136 ft | 237 kts | 221° |
| 2026-05-07 08:24 | 51.41457 | -0.41895 | 2362 ft | 251 kts | 221° |
| 2026-05-07 08:24 | 51.39788 | -0.44276 | 3427 ft | 253 kts | 221° |
| 2026-05-07 08:24 | 51.38902 | -0.45510 | 3989 ft | 255 kts | 221° |
| 2026-05-07 08:24 | 51.37541 | -0.47373 | 4813 ft | 258 kts | 221° |
| 2026-05-07 08:25 | 51.36423 | -0.49614 | 5588 ft | 261 kts | 246° |
| 2026-05-07 08:25 | 51.36088 | -0.52464 | 6414 ft | 264 kts | 274° |
| 2026-05-07 08:25 | 51.36501 | -0.55300 | 7144 ft | 268 kts | 288° |
| 2026-05-07 08:25 | 51.37123 | -0.58155 | 7882 ft | 272 kts | 289° |
| 2026-05-07 08:26 | 51.38339 | -0.63844 | 9342 ft | 281 kts | 288° |
| 2026-05-07 08:26 | 51.38925 | -0.66818 | 10043 ft | 286 kts | 287° |
| 2026-05-07 08:26 | 51.39518 | -0.69926 | 10463 ft | 301 kts | 287° |
| 2026-05-07 08:27 | 51.40134 | -0.73199 | 10640 ft | 320 kts | 287° |
| 2026-05-07 08:27 | 51.40789 | -0.76705 | 10927 ft | 336 kts | 287° |
| 2026-05-07 08:27 | 51.41440 | -0.80192 | 11515 ft | 339 kts | 286° |
| 2026-05-07 08:27 | 51.42122 | -0.83846 | 12168 ft | 342 kts | 286° |
| 2026-05-07 08:28 | 51.42806 | -0.87516 | 12797 ft | 345 kts | 286° |
| 2026-05-07 08:28 | 51.43491 | -0.91202 | 13430 ft | 349 kts | 286° |
| 2026-05-07 08:28 | 51.44183 | -0.94931 | 14050 ft | 352 kts | 285° |
| 2026-05-07 08:28 | 51.44883 | -0.98707 | 14623 ft | 355 kts | 285° |
| 2026-05-07 08:29 | 51.45587 | -1.02515 | 15209 ft | 357 kts | 285° |
| 2026-05-07 08:29 | 51.46294 | -1.06347 | 15789 ft | 359 kts | 285° |
| 2026-05-07 08:29 | 51.46973 | -1.10034 | 16320 ft | 362 kts | 285° |
| 2026-05-07 08:29 | 51.47691 | -1.13937 | 16881 ft | 365 kts | 285° |
| 2026-05-07 08:30 | 51.48420 | -1.17853 | 17416 ft | 368 kts | 288° |
| 2026-05-07 08:30 | 51.49509 | -1.21595 | 17982 ft | 372 kts | 301° |
| 2026-05-07 08:30 | 51.50985 | -1.24719 | 18463 ft | 376 kts | 312° |
| 2026-05-07 08:30 | 51.52903 | -1.27620 | 18921 ft | 379 kts | 316° |
| 2026-05-07 08:31 | 51.54852 | -1.30529 | 19381 ft | 382 kts | 316° |
| 2026-05-07 08:31 | 51.56740 | -1.33390 | 19811 ft | 384 kts | 316° |
| 2026-05-07 08:31 | 51.58689 | -1.36359 | 20249 ft | 387 kts | 315° |
| 2026-05-07 08:31 | 51.60498 | -1.39606 | 20691 ft | 389 kts | 306° |
| 2026-05-07 08:32 | 51.62012 | -1.43230 | 21136 ft | 391 kts | 299° |
| 2026-05-07 08:32 | 51.63290 | -1.47115 | 21540 ft | 394 kts | 297° |
| 2026-05-07 08:32 | 51.64564 | -1.50968 | 21959 ft | 397 kts | 297° |
| 2026-05-07 08:32 | 51.65884 | -1.54911 | 22361 ft | 400 kts | 297° |
| 2026-05-07 08:33 | 51.67210 | -1.58874 | 22787 ft | 403 kts | 297° |
| 2026-05-07 08:33 | 51.68544 | -1.62877 | 23169 ft | 406 kts | 297° |
| 2026-05-07 08:33 | 51.69733 | -1.67034 | 23571 ft | 409 kts | 289° |
| 2026-05-07 08:33 | 51.70543 | -1.71443 | 23928 ft | 411 kts | 281° |
| 2026-05-07 08:34 | 51.70973 | -1.75950 | 24273 ft | 412 kts | 275° |
| 2026-05-07 08:34 | 51.71283 | -1.80580 | 24606 ft | 415 kts | 276° |
| 2026-05-07 08:34 | 51.71621 | -1.85238 | 24954 ft | 418 kts | 276° |
| 2026-05-07 08:34 | 51.71965 | -1.89913 | 25319 ft | 421 kts | 276° |
| 2026-05-07 08:35 | 51.72303 | -1.94569 | 25676 ft | 423 kts | 276° |
| 2026-05-07 08:35 | 51.72643 | -1.99318 | 26050 ft | 426 kts | 276° |
| 2026-05-07 08:35 | 51.72980 | -2.04085 | 26446 ft | 429 kts | 276° |
| 2026-05-07 08:35 | 51.73317 | -2.08901 | 26843 ft | 432 kts | 276° |
| 2026-05-07 08:36 | 51.73650 | -2.13671 | 27254 ft | 434 kts | 276° |
| 2026-05-07 08:36 | 51.73987 | -2.18549 | 27658 ft | 438 kts | 276° |
| 2026-05-07 08:36 | 51.74324 | -2.23444 | 28091 ft | 440 kts | 276° |
| 2026-05-07 08:36 | 51.74662 | -2.28387 | 28507 ft | 443 kts | 276° |
| 2026-05-07 08:37 | 51.74999 | -2.33355 | 28923 ft | 447 kts | 276° |
| 2026-05-07 08:37 | 51.75338 | -2.38376 | 29332 ft | 450 kts | 276° |
| 2026-05-07 08:37 | 51.75676 | -2.43413 | 29751 ft | 453 kts | 276° |
| 2026-05-07 08:37 | 51.76011 | -2.48440 | 30159 ft | 457 kts | 276° |
| 2026-05-07 08:38 | 51.76349 | -2.53560 | 30520 ft | 460 kts | 276° |
| 2026-05-07 08:38 | 51.76690 | -2.58739 | 30903 ft | 463 kts | 276° |
| 2026-05-07 08:38 | 51.77024 | -2.63861 | 31275 ft | 465 kts | 276° |
| 2026-05-07 08:38 | 51.77362 | -2.69077 | 31641 ft | 468 kts | 276° |
| 2026-05-07 08:39 | 51.77702 | -2.74351 | 31994 ft | 472 kts | 276° |
| 2026-05-07 08:39 | 51.77751 | -2.75107 | 32050 ft | 472 kts | 276° |
| 2026-05-07 08:39 | 51.78085 | -2.80344 | 32410 ft | 475 kts | 276° |
| 2026-05-07 08:39 | 51.78423 | -2.85671 | 32760 ft | 478 kts | 276° |
| 2026-05-07 08:40 | 51.78760 | -2.91031 | 33103 ft | 481 kts | 276° |
| 2026-05-07 08:40 | 51.79097 | -2.96439 | 33442 ft | 484 kts | 276° |
| 2026-05-07 08:40 | 51.79435 | -3.01881 | 33794 ft | 487 kts | 276° |
| 2026-05-07 08:40 | 51.79767 | -3.07285 | 34125 ft | 490 kts | 276° |
| 2026-05-07 08:41 | 51.80105 | -3.12810 | 34434 ft | 493 kts | 276° |
| 2026-05-07 08:41 | 51.80441 | -3.18359 | 34769 ft | 495 kts | 275° |
| 2026-05-07 08:41 | 51.80770 | -3.23836 | 35173 ft | 494 kts | 275° |
| 2026-05-07 08:41 | 51.81101 | -3.29383 | 35601 ft | 494 kts | 275° |
| 2026-05-07 08:42 | 51.81428 | -3.34925 | 36019 ft | 493 kts | 275° |
| 2026-05-07 08:42 | 51.81749 | -3.40385 | 36439 ft | 492 kts | 275° |
| 2026-05-07 08:42 | 51.82047 | -3.45503 | 36858 ft | 491 kts | 275° |
| 2026-05-07 08:42 | 51.82374 | -3.51180 | 37373 ft | 488 kts | 275° |
| 2026-05-07 08:43 | 51.82857 | -3.56607 | 37895 ft | 486 kts | 281° |
| 2026-05-07 08:43 | 51.83564 | -3.61912 | 38041 ft | 491 kts | 281° |
| 2026-05-07 08:43 | 51.84973 | -3.72692 | 38033 ft | 486 kts | 281° |
| 2026-05-07 08:44 | 51.86356 | -3.83450 | 38031 ft | 489 kts | 281° |
| 2026-05-07 08:44 | 51.87692 | -3.93932 | 38029 ft | 489 kts | 281° |
| 2026-05-07 08:45 | 51.89057 | -4.04721 | 38028 ft | 489 kts | 281° |
| 2026-05-07 08:45 | 51.90412 | -4.15509 | 38017 ft | 488 kts | 281° |
| 2026-05-07 08:46 | 51.91747 | -4.26225 | 38014 ft | 487 kts | 281° |
| 2026-05-07 08:46 | 51.93075 | -4.36975 | 38009 ft | 487 kts | 281° |
| 2026-05-07 08:47 | 51.94396 | -4.47752 | 38015 ft | 487 kts | 281° |
| 2026-05-07 08:47 | 51.95713 | -4.58573 | 38014 ft | 488 kts | 280° |
| 2026-05-07 08:48 | 51.97011 | -4.69340 | 38010 ft | 488 kts | 280° |
| 2026-05-07 08:48 | 51.98307 | -4.80172 | 38014 ft | 489 kts | 280° |
| 2026-05-07 08:49 | 51.99588 | -4.90964 | 38014 ft | 489 kts | 280° |
| 2026-05-07 08:49 | 52.00869 | -5.01849 | 38019 ft | 489 kts | 280° |
| 2026-05-07 08:50 | 52.02132 | -5.12678 | 38022 ft | 489 kts | 280° |
| 2026-05-07 08:50 | 52.03682 | -5.23385 | 38018 ft | 489 kts | 288° |
| 2026-05-07 08:51 | 52.05836 | -5.33882 | 38013 ft | 489 kts | 287° |
| 2026-05-07 08:51 | 52.07947 | -5.44368 | 38013 ft | 489 kts | 287° |
| 2026-05-07 08:52 | 52.10052 | -5.54892 | 38010 ft | 488 kts | 287° |
| 2026-05-07 08:52 | 52.12138 | -5.65368 | 38007 ft | 488 kts | 287° |
| 2026-05-07 08:53 | 52.14228 | -5.75921 | 38005 ft | 488 kts | 287° |
| 2026-05-07 08:53 | 52.16164 | -5.86440 | 38000 ft | 487 kts | 282° |
| 2026-05-07 08:54 | 52.17544 | -5.97197 | 38001 ft | 486 kts | 281° |
| 2026-05-07 08:54 | 52.18961 | -6.07987 | 37994 ft | 486 kts | 281° |
| 2026-05-07 08:55 | 52.20382 | -6.18807 | 37992 ft | 486 kts | 281° |
| 2026-05-07 08:55 | 52.21778 | -6.29524 | 37988 ft | 486 kts | 281° |
| 2026-05-07 08:56 | 52.23171 | -6.40336 | 37990 ft | 485 kts | 281° |
| 2026-05-07 08:56 | 52.24539 | -6.51073 | 37985 ft | 485 kts | 281° |
| 2026-05-07 08:57 | 52.25906 | -6.61904 | 37988 ft | 485 kts | 281° |
| 2026-05-07 08:57 | 52.27253 | -6.72660 | 37984 ft | 485 kts | 281° |
| 2026-05-07 08:58 | 52.28595 | -6.83462 | 37986 ft | 485 kts | 281° |
| 2026-05-07 08:58 | 52.29921 | -6.94221 | 37988 ft | 485 kts | 281° |
| 2026-05-07 08:59 | 52.31243 | -7.05036 | 37993 ft | 484 kts | 280° |
| 2026-05-07 08:59 | 52.32557 | -7.15868 | 37994 ft | 484 kts | 280° |
| 2026-05-07 09:00 | 52.33851 | -7.26627 | 37988 ft | 484 kts | 280° |
| 2026-05-07 09:00 | 52.35143 | -7.37462 | 37981 ft | 484 kts | 280° |
| 2026-05-07 09:01 | 52.36419 | -7.48242 | 37976 ft | 484 kts | 280° |
| 2026-05-07 09:01 | 52.37691 | -7.59078 | 37969 ft | 484 kts | 280° |
| 2026-05-07 09:02 | 52.38953 | -7.69923 | 37965 ft | 484 kts | 280° |
| 2026-05-07 09:02 | 52.40195 | -7.80691 | 37967 ft | 484 kts | 280° |
| 2026-05-07 09:03 | 52.41438 | -7.91556 | 37970 ft | 484 kts | 280° |
| 2026-05-07 09:03 | 52.42663 | -8.02359 | 37973 ft | 484 kts | 279° |
| 2026-05-07 09:04 | 52.43888 | -8.13246 | 37974 ft | 484 kts | 279° |
| 2026-05-07 09:04 | 52.45096 | -8.24078 | 37974 ft | 484 kts | 279° |
| 2026-05-07 09:05 | 52.46291 | -8.34894 | 37972 ft | 484 kts | 279° |
| 2026-05-07 09:05 | 52.47483 | -8.45783 | 37969 ft | 484 kts | 279° |
| 2026-05-07 09:06 | 52.48659 | -8.56608 | 37972 ft | 484 kts | 279° |
| 2026-05-07 09:06 | 52.49830 | -8.67501 | 37968 ft | 484 kts | 279° |
| 2026-05-07 09:07 | 52.50992 | -8.78399 | 37968 ft | 484 kts | 279° |
| 2026-05-07 09:07 | 52.52136 | -8.89229 | 37962 ft | 483 kts | 279° |
| 2026-05-07 09:08 | 52.53279 | -9.00147 | 37964 ft | 483 kts | 279° |
| 2026-05-07 09:08 | 52.54218 | -9.09196 | 37962 ft | 483 kts | 278° |
| 2026-05-07 09:09 | 52.55341 | -9.20106 | 37962 ft | 483 kts | 278° |
| 2026-05-07 09:09 | 52.56445 | -9.30943 | 37962 ft | 482 kts | 278° |
| 2026-05-07 09:10 | 52.57546 | -9.41848 | 37960 ft | 482 kts | 278° |
| 2026-05-07 09:10 | 52.58629 | -9.52675 | 37960 ft | 482 kts | 278° |
| 2026-05-07 09:11 | 52.59708 | -9.63575 | 37957 ft | 481 kts | 278° |
| 2026-05-07 09:11 | 52.60769 | -9.74399 | 37960 ft | 481 kts | 278° |
| 2026-05-07 09:12 | 52.61822 | -9.85251 | 37958 ft | 481 kts | 278° |
| 2026-05-07 09:12 | 52.62870 | -9.96148 | 37958 ft | 481 kts | 278° |
| 2026-05-07 09:13 | 52.63903 | -10.06992 | 37953 ft | 480 kts | 277° |
| 2026-05-07 09:13 | 52.64929 | -10.17889 | 37953 ft | 480 kts | 277° |
| 2026-05-07 09:14 | 52.65936 | -10.28689 | 37952 ft | 480 kts | 277° |
| 2026-05-07 09:14 | 52.66943 | -10.39602 | 37944 ft | 480 kts | 277° |
| 2026-05-07 09:15 | 52.67932 | -10.50428 | 37944 ft | 479 kts | 277° |
| 2026-05-07 09:15 | 52.68917 | -10.61325 | 37942 ft | 479 kts | 277° |
| 2026-05-07 09:16 | 52.69884 | -10.72133 | 37939 ft | 479 kts | 277° |
| 2026-05-07 09:16 | 52.70847 | -10.83014 | 37938 ft | 479 kts | 277° |
| 2026-05-07 09:17 | 52.71801 | -10.93919 | 37938 ft | 479 kts | 277° |
| 2026-05-07 09:17 | 52.72738 | -11.04738 | 37935 ft | 479 kts | 276° |
| 2026-05-07 09:18 | 52.73674 | -11.15670 | 37933 ft | 479 kts | 276° |
| 2026-05-07 09:18 | 52.74592 | -11.26513 | 37939 ft | 479 kts | 276° |
| 2026-05-07 09:19 | 52.75500 | -11.37356 | 37935 ft | 479 kts | 276° |
| 2026-05-07 09:19 | 52.76403 | -11.48260 | 37929 ft | 479 kts | 276° |
| 2026-05-07 09:20 | 52.77296 | -11.59174 | 37929 ft | 478 kts | 276° |
| 2026-05-07 09:20 | 52.78174 | -11.70027 | 37924 ft | 478 kts | 276° |
| 2026-05-07 09:21 | 52.79047 | -11.80953 | 37924 ft | 478 kts | 276° |
| 2026-05-07 09:21 | 52.79903 | -11.91792 | 37923 ft | 477 kts | 276° |
| 2026-05-07 09:22 | 52.80754 | -12.02698 | 37924 ft | 477 kts | 275° |
| 2026-05-07 09:22 | 52.81589 | -12.13532 | 37920 ft | 477 kts | 275° |
| 2026-05-07 09:23 | 52.82415 | -12.24370 | 37928 ft | 476 kts | 275° |
| 2026-05-07 09:23 | 52.83235 | -12.35274 | 37927 ft | 476 kts | 275° |
| 2026-05-07 09:24 | 52.84039 | -12.46095 | 37922 ft | 475 kts | 275° |
| 2026-05-07 09:24 | 52.84834 | -12.56938 | 37922 ft | 475 kts | 275° |
| 2026-05-07 09:25 | 52.85620 | -12.67799 | 37916 ft | 475 kts | 275° |
| 2026-05-07 09:25 | 52.86397 | -12.78671 | 37909 ft | 474 kts | 275° |
| 2026-05-07 09:26 | 52.87158 | -12.89453 | 37914 ft | 474 kts | 274° |
| 2026-05-07 09:26 | 52.87913 | -13.00313 | 37917 ft | 474 kts | 274° |
| 2026-05-07 09:27 | 52.88655 | -13.11119 | 37916 ft | 474 kts | 274° |
| 2026-05-07 09:28 | 52.89753 | -13.27392 | 37924 ft | 473 kts | 274° |
| 2026-05-07 09:28 | 52.90474 | -13.38260 | 37930 ft | 473 kts | 274° |
| 2026-05-07 09:29 | 52.91179 | -13.49043 | 37923 ft | 472 kts | 274° |
| 2026-05-07 09:29 | 52.91879 | -13.59894 | 37928 ft | 472 kts | 274° |
| 2026-05-07 09:30 | 52.92563 | -13.70667 | 37922 ft | 472 kts | 274° |
| 2026-05-07 09:30 | 52.93244 | -13.81529 | 37926 ft | 472 kts | 274° |
| 2026-05-07 09:31 | 52.93908 | -13.92306 | 37929 ft | 471 kts | 274° |
| 2026-05-07 09:31 | 52.94566 | -14.03130 | 37924 ft | 471 kts | 274° |
| 2026-05-07 09:32 | 52.95209 | -14.13877 | 37928 ft | 470 kts | 274° |
| 2026-05-07 09:32 | 52.95846 | -14.24693 | 37925 ft | 470 kts | 274° |
| 2026-05-07 09:33 | 52.96469 | -14.35444 | 37927 ft | 470 kts | 274° |
| 2026-05-07 09:33 | 52.97086 | -14.46251 | 37927 ft | 469 kts | 274° |
| 2026-05-07 09:34 | 52.97689 | -14.56984 | 37931 ft | 469 kts | 274° |
| 2026-05-07 09:34 | 52.98289 | -14.67779 | 37933 ft | 469 kts | 274° |
| 2026-05-07 09:35 | 52.98884 | -14.78574 | 37933 ft | 468 kts | 274° |
| 2026-05-07 09:35 | 52.99467 | -14.89304 | 37936 ft | 468 kts | 274° |
| 2026-05-07 09:36 | 52.99991 | -15.00055 | 37937 ft | 468 kts | 272° |
| 2026-05-07 09:36 | 53.00190 | -15.10863 | 37936 ft | 467 kts | 270° |
| 2026-05-07 09:37 | 53.00407 | -15.21604 | 37938 ft | 467 kts | 271° |
| 2026-05-07 09:37 | 53.00634 | -15.32427 | 37939 ft | 467 kts | 271° |
| 2026-05-07 09:38 | 53.00832 | -15.43148 | 37946 ft | 466 kts | 270° |
| 2026-05-07 09:38 | 53.01014 | -15.53870 | 37944 ft | 466 kts | 270° |
| 2026-05-07 09:39 | 53.01186 | -15.64660 | 37947 ft | 466 kts | 270° |
| 2026-05-07 09:39 | 53.01349 | -15.75428 | 37947 ft | 466 kts | 270° |
| 2026-05-07 09:40 | 53.01502 | -15.86200 | 37953 ft | 465 kts | 270° |
| 2026-05-07 09:40 | 53.01643 | -15.96791 | 37948 ft | 465 kts | 270° |
| 2026-05-07 09:41 | 53.01777 | -16.07633 | 37948 ft | 465 kts | 270° |
| 2026-05-07 09:41 | 53.01901 | -16.18392 | 37951 ft | 465 kts | 270° |
| 2026-05-07 09:42 | 53.02014 | -16.29144 | 37949 ft | 465 kts | 270° |
| 2026-05-07 09:42 | 53.02118 | -16.39844 | 37953 ft | 465 kts | 270° |
| 2026-05-07 09:43 | 53.02213 | -16.50631 | 37956 ft | 465 kts | 270° |
| 2026-05-07 09:43 | 53.02297 | -16.61345 | 37954 ft | 465 kts | 270° |
| 2026-05-07 09:44 | 53.02372 | -16.72116 | 37959 ft | 466 kts | 270° |
| 2026-05-07 09:44 | 53.02437 | -16.82843 | 37960 ft | 466 kts | 270° |
| 2026-05-07 09:45 | 53.02493 | -16.93659 | 37963 ft | 466 kts | 270° |
| 2026-05-07 09:45 | 53.02539 | -17.04398 | 37965 ft | 467 kts | 270° |
| 2026-05-07 09:46 | 53.02576 | -17.15215 | 37965 ft | 467 kts | 270° |
| 2026-05-07 09:46 | 53.02602 | -17.25962 | 37970 ft | 467 kts | 270° |
| 2026-05-07 09:47 | 53.02619 | -17.36785 | 37971 ft | 468 kts | 269° |
| 2026-05-07 09:47 | 53.02626 | -17.47542 | 37972 ft | 468 kts | 269° |
| 2026-05-07 09:48 | 53.02623 | -17.58384 | 37974 ft | 468 kts | 269° |
| 2026-05-07 09:48 | 53.02611 | -17.69229 | 37976 ft | 468 kts | 269° |
| 2026-05-07 09:49 | 53.02588 | -17.80005 | 37977 ft | 468 kts | 269° |
| 2026-05-07 09:49 | 53.02556 | -17.90848 | 37972 ft | 469 kts | 269° |
| 2026-05-07 09:50 | 53.02514 | -18.01652 | 37979 ft | 469 kts | 269° |
| 2026-05-07 09:50 | 53.02462 | -18.12531 | 37982 ft | 469 kts | 269° |
| 2026-05-07 09:51 | 53.02401 | -18.23317 | 37983 ft | 469 kts | 269° |
| 2026-05-07 09:51 | 53.02329 | -18.34194 | 37984 ft | 470 kts | 269° |
| 2026-05-07 09:52 | 53.02248 | -18.44993 | 37987 ft | 470 kts | 269° |
| 2026-05-07 09:52 | 53.02156 | -18.55865 | 37989 ft | 470 kts | 269° |
| 2026-05-07 09:53 | 53.02054 | -18.66746 | 37990 ft | 470 kts | 269° |
| 2026-05-07 09:53 | 53.01944 | -18.77546 | 37990 ft | 470 kts | 269° |
| 2026-05-07 09:54 | 53.01822 | -18.88430 | 37992 ft | 471 kts | 269° |
| 2026-05-07 09:54 | 53.01714 | -18.97481 | 37995 ft | 471 kts | 269° |
| 2026-05-07 09:55 | 53.01550 | -19.10142 | 37995 ft | 471 kts | 269° |
| 2026-05-07 09:55 | 53.01425 | -19.19206 | 37992 ft | 471 kts | 268° |
| 2026-05-07 09:56 | 53.01266 | -19.30049 | 37997 ft | 471 kts | 268° |
| 2026-05-07 09:56 | 53.01097 | -19.40942 | 37999 ft | 471 kts | 268° |
| 2026-05-07 09:57 | 53.00918 | -19.51768 | 37998 ft | 471 kts | 268° |
| 2026-05-07 09:57 | 53.00729 | -19.62670 | 37999 ft | 471 kts | 268° |
| 2026-05-07 09:58 | 53.00530 | -19.73535 | 38002 ft | 471 kts | 268° |
| 2026-05-07 09:58 | 53.00323 | -19.84346 | 38006 ft | 471 kts | 268° |
| 2026-05-07 09:59 | 53.00111 | -19.95228 | 38006 ft | 471 kts | 268° |
| 2026-05-07 09:59 | 52.99652 | -20.06045 | 38007 ft | 471 kts | 264° |
| 2026-05-07 10:00 | 52.98993 | -20.16894 | 38006 ft | 471 kts | 265° |
| 2026-05-07 10:00 | 52.98375 | -20.27757 | 38008 ft | 472 kts | 265° |
| 2026-05-07 10:01 | 52.97750 | -20.38576 | 38012 ft | 472 kts | 265° |
| 2026-05-07 10:01 | 52.97113 | -20.49369 | 38017 ft | 472 kts | 265° |
| 2026-05-07 10:02 | 52.96460 | -20.60243 | 38009 ft | 472 kts | 265° |
| 2026-05-07 10:02 | 52.95795 | -20.71041 | 38022 ft | 472 kts | 264° |
| 2026-05-07 10:03 | 52.95113 | -20.81916 | 38021 ft | 472 kts | 264° |
| 2026-05-07 10:03 | 52.94427 | -20.92698 | 38022 ft | 472 kts | 264° |
| 2026-05-07 10:04 | 52.93726 | -21.03551 | 38013 ft | 473 kts | 264° |
| 2026-05-07 10:04 | 52.93014 | -21.14407 | 38024 ft | 473 kts | 264° |
| 2026-05-07 10:05 | 52.92298 | -21.25189 | 38020 ft | 473 kts | 264° |
| 2026-05-07 10:05 | 52.91567 | -21.36032 | 38023 ft | 473 kts | 264° |
| 2026-05-07 10:06 | 52.90827 | -21.46870 | 38026 ft | 473 kts | 264° |
| 2026-05-07 10:06 | 52.90076 | -21.57709 | 38033 ft | 473 kts | 264° |
| 2026-05-07 10:07 | 52.89318 | -21.68501 | 38027 ft | 473 kts | 264° |
| 2026-05-07 10:07 | 52.88547 | -21.79349 | 38032 ft | 473 kts | 264° |
| 2026-05-07 10:08 | 52.87770 | -21.90138 | 38025 ft | 473 kts | 264° |
| 2026-05-07 10:08 | 52.86978 | -22.00980 | 38032 ft | 473 kts | 264° |
| 2026-05-07 10:09 | 52.86183 | -22.11742 | 38032 ft | 473 kts | 264° |
| 2026-05-07 10:09 | 52.85371 | -22.22589 | 38031 ft | 474 kts | 264° |
| 2026-05-07 10:10 | 52.84555 | -22.33350 | 38028 ft | 474 kts | 264° |
| 2026-05-07 10:10 | 52.83723 | -22.44191 | 38047 ft | 474 kts | 264° |
| 2026-05-07 10:11 | 52.82881 | -22.55028 | 38036 ft | 474 kts | 264° |
| 2026-05-07 10:11 | 52.82036 | -22.65778 | 38042 ft | 474 kts | 264° |
| 2026-05-07 10:12 | 52.81173 | -22.76627 | 38044 ft | 474 kts | 264° |
| 2026-05-07 10:12 | 52.80303 | -22.87441 | 38050 ft | 474 kts | 264° |
| 2026-05-07 10:13 | 52.79428 | -22.98187 | 38041 ft | 474 kts | 264° |
| 2026-05-07 10:13 | 52.78535 | -23.09029 | 38048 ft | 474 kts | 264° |
| 2026-05-07 10:14 | 52.77638 | -23.19795 | 38049 ft | 475 kts | 263° |
| 2026-05-07 10:14 | 52.76725 | -23.30630 | 38055 ft | 475 kts | 263° |
| 2026-05-07 10:15 | 52.75808 | -23.41392 | 38051 ft | 475 kts | 263° |
| 2026-05-07 10:15 | 52.74878 | -23.52194 | 38061 ft | 475 kts | 263° |
| 2026-05-07 10:16 | 52.73942 | -23.62941 | 38059 ft | 475 kts | 263° |
| 2026-05-07 10:16 | 52.72988 | -23.73769 | 38060 ft | 475 kts | 263° |
| 2026-05-07 10:17 | 52.72029 | -23.84553 | 38058 ft | 475 kts | 263° |
| 2026-05-07 10:17 | 52.71063 | -23.95295 | 38068 ft | 475 kts | 263° |
| 2026-05-07 10:18 | 52.70086 | -24.06044 | 38057 ft | 475 kts | 263° |
| 2026-05-07 10:18 | 52.69097 | -24.16822 | 38070 ft | 475 kts | 263° |
| 2026-05-07 10:19 | 52.68103 | -24.27535 | 38062 ft | 475 kts | 263° |
| 2026-05-07 10:19 | 52.67094 | -24.38306 | 38071 ft | 475 kts | 263° |
| 2026-05-07 10:20 | 52.66073 | -24.49087 | 38069 ft | 475 kts | 263° |
| 2026-05-07 10:20 | 52.65048 | -24.59813 | 38075 ft | 476 kts | 263° |
| 2026-05-07 10:21 | 52.64007 | -24.70588 | 38073 ft | 476 kts | 263° |
| 2026-05-07 10:21 | 52.62964 | -24.81293 | 38080 ft | 476 kts | 263° |
| 2026-05-07 10:22 | 52.61900 | -24.92096 | 38078 ft | 476 kts | 262° |
| 2026-05-07 10:22 | 52.60835 | -25.02804 | 38084 ft | 477 kts | 262° |
| 2026-05-07 10:23 | 52.59751 | -25.13606 | 38081 ft | 477 kts | 262° |
| 2026-05-07 10:23 | 52.58665 | -25.24324 | 38095 ft | 477 kts | 262° |
| 2026-05-07 10:24 | 52.57560 | -25.35127 | 38088 ft | 477 kts | 262° |
| 2026-05-07 10:24 | 52.56449 | -25.45894 | 38097 ft | 478 kts | 262° |
| 2026-05-07 10:25 | 52.55330 | -25.56630 | 38088 ft | 478 kts | 262° |
| 2026-05-07 10:25 | 52.54202 | -25.67355 | 38098 ft | 478 kts | 262° |
| 2026-05-07 10:26 | 52.53057 | -25.78142 | 38214 ft | 478 kts | 262° |
| 2026-05-07 10:26 | 52.52486 | -25.83479 | 38077 ft | 480 kts | 263° |
| 2026-05-07 10:26 | 52.51907 | -25.88882 | 38103 ft | 479 kts | 263° |
| 2026-05-07 10:27 | 52.50746 | -25.99629 | 38098 ft | 479 kts | 263° |
| 2026-05-07 10:27 | 52.49570 | -26.10409 | 38091 ft | 478 kts | 263° |
| 2026-05-07 10:28 | 52.48386 | -26.21177 | 38089 ft | 478 kts | 263° |
| 2026-05-07 10:28 | 52.47201 | -26.31860 | 38097 ft | 478 kts | 263° |
| 2026-05-07 10:29 | 52.45997 | -26.42627 | 38098 ft | 479 kts | 263° |
| 2026-05-07 10:29 | 52.44800 | -26.53229 | 38105 ft | 479 kts | 263° |
| 2026-05-07 10:30 | 52.42956 | -26.69391 | 38116 ft | 480 kts | 263° |
| 2026-05-07 10:30 | 52.41714 | -26.80162 | 38121 ft | 480 kts | 263° |
| 2026-05-07 10:31 | 52.40460 | -26.90952 | 38128 ft | 480 kts | 263° |
| 2026-05-07 10:31 | 52.39207 | -27.01634 | 38127 ft | 480 kts | 263° |
| 2026-05-07 10:32 | 52.37933 | -27.12414 | 38129 ft | 480 kts | 263° |
| 2026-05-07 10:32 | 52.36661 | -27.23090 | 38129 ft | 480 kts | 263° |
| 2026-05-07 10:33 | 52.35370 | -27.33829 | 38131 ft | 479 kts | 263° |
| 2026-05-07 10:33 | 52.34080 | -27.44484 | 38132 ft | 479 kts | 263° |
| 2026-05-07 10:34 | 52.32775 | -27.55170 | 38130 ft | 479 kts | 263° |
| 2026-05-07 10:34 | 52.31460 | -27.65855 | 38128 ft | 478 kts | 263° |
| 2026-05-07 10:35 | 52.30143 | -27.76474 | 38130 ft | 478 kts | 263° |
| 2026-05-07 10:35 | 52.28808 | -27.87150 | 38135 ft | 478 kts | 263° |
| 2026-05-07 10:36 | 52.27473 | -27.97739 | 38134 ft | 478 kts | 263° |
| 2026-05-07 10:36 | 52.26119 | -28.08409 | 38154 ft | 478 kts | 263° |
| 2026-05-07 10:37 | 52.24765 | -28.18993 | 38157 ft | 478 kts | 263° |
| 2026-05-07 10:37 | 52.23393 | -28.29635 | 38145 ft | 478 kts | 263° |
| 2026-05-07 10:38 | 52.22019 | -28.40210 | 38150 ft | 478 kts | 263° |
| 2026-05-07 10:38 | 52.20867 | -28.49019 | 38149 ft | 478 kts | 263° |
| 2026-05-07 10:39 | 52.19468 | -28.59643 | 38156 ft | 477 kts | 263° |
| 2026-05-07 10:39 | 52.18064 | -28.70227 | 38154 ft | 477 kts | 263° |
| 2026-05-07 10:40 | 52.16657 | -28.80754 | 38155 ft | 477 kts | 263° |
| 2026-05-07 10:40 | 52.15235 | -28.91314 | 38157 ft | 476 kts | 263° |
| 2026-05-07 10:41 | 52.13814 | -29.01791 | 38163 ft | 476 kts | 263° |
| 2026-05-07 10:41 | 52.12377 | -29.12315 | 38165 ft | 475 kts | 263° |
| 2026-05-07 10:42 | 52.10941 | -29.22760 | 38159 ft | 475 kts | 263° |
| 2026-05-07 10:42 | 52.09483 | -29.33285 | 38172 ft | 474 kts | 263° |
| 2026-05-07 10:43 | 52.08029 | -29.43704 | 38172 ft | 474 kts | 263° |
| 2026-05-07 10:43 | 52.06561 | -29.54156 | 38176 ft | 474 kts | 263° |
| 2026-05-07 10:44 | 52.05096 | -29.64539 | 38164 ft | 473 kts | 263° |
| 2026-05-07 10:44 | 52.03619 | -29.74970 | 38172 ft | 473 kts | 263° |
| 2026-05-07 10:45 | 52.02134 | -29.85395 | 38176 ft | 473 kts | 263° |
| 2026-05-07 10:45 | 52.00643 | -29.95793 | 38175 ft | 473 kts | 263° |
| 2026-05-07 10:46 | 51.99237 | -30.06146 | 38177 ft | 470 kts | 266° |
| 2026-05-07 10:46 | 51.98181 | -30.16590 | 38177 ft | 468 kts | 267° |
| 2026-05-07 10:47 | 51.97138 | -30.26981 | 38179 ft | 469 kts | 266° |
| 2026-05-07 10:47 | 51.96043 | -30.37444 | 38182 ft | 469 kts | 266° |
| 2026-05-07 10:48 | 51.94941 | -30.47808 | 38181 ft | 469 kts | 266° |
| 2026-05-07 10:48 | 51.93822 | -30.58225 | 38185 ft | 469 kts | 266° |
| 2026-05-07 10:49 | 51.92692 | -30.68599 | 38192 ft | 469 kts | 266° |
| 2026-05-07 10:49 | 51.91544 | -30.79035 | 38189 ft | 469 kts | 266° |
| 2026-05-07 10:50 | 51.90391 | -30.89412 | 38184 ft | 469 kts | 265° |
| 2026-05-07 10:50 | 51.89224 | -30.99838 | 38188 ft | 469 kts | 265° |
| 2026-05-07 10:51 | 51.88056 | -31.10184 | 38192 ft | 469 kts | 265° |
| 2026-05-07 10:51 | 51.86869 | -31.20611 | 38196 ft | 470 kts | 265° |
| 2026-05-07 10:52 | 51.85680 | -31.30971 | 38194 ft | 470 kts | 265° |
| 2026-05-07 10:52 | 51.84474 | -31.41392 | 38196 ft | 470 kts | 265° |
| 2026-05-07 10:53 | 51.83266 | -31.51739 | 38199 ft | 470 kts | 265° |
| 2026-05-07 10:53 | 51.82042 | -31.62153 | 38201 ft | 471 kts | 265° |
| 2026-05-07 10:54 | 51.80808 | -31.72560 | 38207 ft | 471 kts | 265° |
| 2026-05-07 10:54 | 51.79573 | -31.82890 | 38210 ft | 470 kts | 265° |
| 2026-05-07 10:55 | 51.78317 | -31.93314 | 38204 ft | 470 kts | 265° |
| 2026-05-07 10:55 | 51.77062 | -32.03650 | 38204 ft | 470 kts | 264° |
| 2026-05-07 10:56 | 51.75800 | -32.13969 | 38207 ft | 470 kts | 264° |
| 2026-05-07 10:56 | 51.74521 | -32.24339 | 38213 ft | 470 kts | 264° |
| 2026-05-07 10:57 | 51.73233 | -32.34711 | 38214 ft | 470 kts | 264° |
| 2026-05-07 10:57 | 51.71941 | -32.45033 | 38228 ft | 470 kts | 264° |
| 2026-05-07 10:58 | 51.70640 | -32.55347 | 38214 ft | 471 kts | 264° |
| 2026-05-07 10:58 | 51.69321 | -32.65718 | 38218 ft | 471 kts | 264° |
| 2026-05-07 10:59 | 51.67996 | -32.76069 | 38220 ft | 471 kts | 264° |
| 2026-05-07 10:59 | 51.66667 | -32.86369 | 38222 ft | 471 kts | 264° |
| 2026-05-07 11:00 | 51.65330 | -32.96662 | 38218 ft | 471 kts | 263° |
| 2026-05-07 11:00 | 51.63972 | -33.07036 | 38223 ft | 472 kts | 263° |
| 2026-05-07 11:01 | 51.62616 | -33.17315 | 38227 ft | 472 kts | 263° |
| 2026-05-07 11:01 | 51.61242 | -33.27664 | 38228 ft | 472 kts | 263° |
| 2026-05-07 11:02 | 51.59863 | -33.37969 | 38228 ft | 472 kts | 263° |
| 2026-05-07 11:02 | 51.58468 | -33.48326 | 38236 ft | 472 kts | 263° |
| 2026-05-07 11:03 | 51.57071 | -33.58618 | 38239 ft | 473 kts | 263° |
| 2026-05-07 11:03 | 51.55657 | -33.68967 | 38231 ft | 473 kts | 263° |
| 2026-05-07 11:04 | 51.54234 | -33.79309 | 38240 ft | 473 kts | 263° |
| 2026-05-07 11:04 | 51.52806 | -33.89610 | 38251 ft | 474 kts | 263° |
| 2026-05-07 11:05 | 51.51360 | -33.99969 | 38256 ft | 474 kts | 263° |
| 2026-05-07 11:05 | 51.49916 | -34.10248 | 38245 ft | 474 kts | 262° |
| 2026-05-07 11:06 | 51.48452 | -34.20595 | 38239 ft | 475 kts | 262° |
| 2026-05-07 11:06 | 51.46987 | -34.30882 | 38245 ft | 475 kts | 262° |
| 2026-05-07 11:07 | 51.45499 | -34.41255 | 38246 ft | 476 kts | 262° |
| 2026-05-07 11:07 | 51.44013 | -34.51546 | 38249 ft | 476 kts | 262° |
| 2026-05-07 11:08 | 51.42504 | -34.61924 | 38248 ft | 477 kts | 262° |
| 2026-05-07 11:08 | 51.40996 | -34.72232 | 38252 ft | 477 kts | 262° |
| 2026-05-07 11:09 | 51.39469 | -34.82597 | 38255 ft | 478 kts | 262° |
| 2026-05-07 11:09 | 51.37930 | -34.92970 | 38256 ft | 478 kts | 262° |
| 2026-05-07 11:10 | 51.36393 | -35.03267 | 38260 ft | 478 kts | 262° |
| 2026-05-07 11:10 | 51.34833 | -35.13648 | 38264 ft | 478 kts | 262° |
| 2026-05-07 11:11 | 51.33267 | -35.24005 | 38263 ft | 479 kts | 262° |
| 2026-05-07 11:11 | 51.31699 | -35.34301 | 38267 ft | 479 kts | 262° |
| 2026-05-07 11:12 | 51.30113 | -35.44654 | 38272 ft | 478 kts | 262° |
| 2026-05-07 11:12 | 51.28526 | -35.54947 | 38270 ft | 478 kts | 262° |
| 2026-05-07 11:13 | 51.26921 | -35.65283 | 38275 ft | 478 kts | 262° |
| 2026-05-07 11:13 | 51.25319 | -35.75542 | 38263 ft | 478 kts | 262° |
| 2026-05-07 11:14 | 51.23696 | -35.85875 | 38266 ft | 478 kts | 262° |
| 2026-05-07 11:14 | 51.22077 | -35.96112 | 38271 ft | 478 kts | 262° |
| 2026-05-07 11:15 | 51.20438 | -36.06411 | 38270 ft | 478 kts | 262° |
| 2026-05-07 11:15 | 51.18791 | -36.16692 | 38269 ft | 478 kts | 262° |
| 2026-05-07 11:16 | 51.17144 | -36.26916 | 38277 ft | 478 kts | 262° |
| 2026-05-07 11:16 | 51.15477 | -36.37200 | 38274 ft | 478 kts | 262° |
| 2026-05-07 11:17 | 51.13813 | -36.47403 | 38284 ft | 478 kts | 262° |
| 2026-05-07 11:17 | 51.12130 | -36.57654 | 38288 ft | 477 kts | 262° |
| 2026-05-07 11:18 | 51.10449 | -36.67842 | 38289 ft | 477 kts | 262° |
| 2026-05-07 11:18 | 51.08748 | -36.78084 | 38284 ft | 477 kts | 262° |
| 2026-05-07 11:19 | 51.07050 | -36.88246 | 38280 ft | 477 kts | 262° |
| 2026-05-07 11:19 | 51.05333 | -36.98464 | 38280 ft | 477 kts | 262° |
| 2026-05-07 11:20 | 51.03609 | -37.08661 | 38282 ft | 477 kts | 262° |
| 2026-05-07 11:20 | 51.01884 | -37.18807 | 38281 ft | 477 kts | 262° |
| 2026-05-07 11:21 | 51.00148 | -37.28956 | 38279 ft | 477 kts | 261° |
| 2026-05-07 11:21 | 50.98396 | -37.39139 | 38280 ft | 477 kts | 261° |
| 2026-05-07 11:22 | 50.96646 | -37.49254 | 38281 ft | 477 kts | 261° |
| 2026-05-07 11:22 | 50.94876 | -37.59426 | 38282 ft | 477 kts | 261° |
| 2026-05-07 11:23 | 50.93106 | -37.69534 | 38283 ft | 477 kts | 261° |
| 2026-05-07 11:23 | 50.91620 | -37.77982 | 38280 ft | 477 kts | 261° |
| 2026-05-07 11:24 | 50.89828 | -37.88115 | 38281 ft | 477 kts | 261° |
| 2026-05-07 11:24 | 50.88038 | -37.98178 | 38285 ft | 477 kts | 261° |
| 2026-05-07 11:25 | 50.86227 | -38.08305 | 38290 ft | 476 kts | 261° |
| 2026-05-07 11:25 | 50.84411 | -38.18399 | 38295 ft | 476 kts | 261° |
| 2026-05-07 11:26 | 50.82597 | -38.28426 | 38288 ft | 476 kts | 261° |
| 2026-05-07 11:26 | 50.80765 | -38.38499 | 38280 ft | 476 kts | 260° |
| 2026-05-07 11:27 | 50.78925 | -38.48564 | 38279 ft | 476 kts | 260° |
| 2026-05-07 11:27 | 50.77087 | -38.58561 | 38284 ft | 476 kts | 260° |
| 2026-05-07 11:28 | 50.75224 | -38.68635 | 38283 ft | 476 kts | 260° |
| 2026-05-07 11:28 | 50.73365 | -38.78635 | 38285 ft | 476 kts | 260° |
| 2026-05-07 11:29 | 50.71500 | -38.88615 | 38284 ft | 476 kts | 260° |
| 2026-05-07 11:29 | 50.69627 | -38.98587 | 38280 ft | 476 kts | 259° |
| 2026-05-07 11:30 | 50.67733 | -39.08614 | 38282 ft | 476 kts | 259° |
| 2026-05-07 11:30 | 50.65842 | -39.18571 | 38287 ft | 476 kts | 259° |
| 2026-05-07 11:31 | 50.63931 | -39.28583 | 38288 ft | 477 kts | 259° |
| 2026-05-07 11:31 | 50.62005 | -39.38613 | 38288 ft | 477 kts | 259° |
| 2026-05-07 11:32 | 50.59111 | -39.53597 | 38288 ft | 477 kts | 259° |
| 2026-05-07 11:33 | 50.57181 | -39.63536 | 38282 ft | 477 kts | 259° |
| 2026-05-07 11:33 | 50.55232 | -39.73547 | 38283 ft | 477 kts | 259° |
| 2026-05-07 11:34 | 50.53289 | -39.83481 | 38282 ft | 477 kts | 259° |
| 2026-05-07 11:34 | 50.51323 | -39.93490 | 38419 ft | 480 kts | 258° |
| 2026-05-07 11:34 | 50.50336 | -39.98490 | 38908 ft | 478 kts | 258° |
| 2026-05-07 11:35 | 50.49409 | -40.03443 | 39275 ft | 474 kts | 263° |
| 2026-05-07 11:35 | 50.48822 | -40.08525 | 39587 ft | 470 kts | 267° |
| 2026-05-07 11:35 | 50.48379 | -40.13615 | 39894 ft | 470 kts | 268° |
| 2026-05-07 11:35 | 50.47935 | -40.18710 | 40194 ft | 471 kts | 267° |
| 2026-05-07 11:36 | 50.47455 | -40.23840 | 40284 ft | 477 kts | 266° |
| 2026-05-07 11:36 | 50.46417 | -40.33982 | 40277 ft | 467 kts | 265° |
| 2026-05-07 11:37 | 50.45355 | -40.44037 | 40281 ft | 470 kts | 265° |
| 2026-05-07 11:37 | 50.44269 | -40.54194 | 40276 ft | 470 kts | 265° |
| 2026-05-07 11:38 | 50.43179 | -40.64275 | 40275 ft | 470 kts | 265° |
| 2026-05-07 11:38 | 50.42072 | -40.74399 | 40271 ft | 469 kts | 265° |
| 2026-05-07 11:39 | 50.40964 | -40.84437 | 40267 ft | 469 kts | 265° |
| 2026-05-07 11:39 | 50.39840 | -40.94528 | 40265 ft | 469 kts | 265° |
| 2026-05-07 11:40 | 50.38715 | -41.04552 | 40265 ft | 469 kts | 265° |
| 2026-05-07 11:40 | 50.37574 | -41.14641 | 40264 ft | 469 kts | 264° |
| 2026-05-07 11:41 | 50.36430 | -41.24669 | 40265 ft | 469 kts | 264° |
| 2026-05-07 11:41 | 50.35271 | -41.34751 | 40273 ft | 469 kts | 264° |
| 2026-05-07 11:42 | 50.34110 | -41.44764 | 40271 ft | 469 kts | 264° |
| 2026-05-07 11:42 | 50.32934 | -41.54832 | 40274 ft | 470 kts | 264° |
| 2026-05-07 11:43 | 50.31746 | -41.64919 | 40271 ft | 470 kts | 264° |
| 2026-05-07 11:43 | 50.30558 | -41.74934 | 40270 ft | 470 kts | 264° |
| 2026-05-07 11:44 | 50.29354 | -41.84996 | 40271 ft | 470 kts | 264° |
| 2026-05-07 11:44 | 50.28150 | -41.94995 | 40267 ft | 469 kts | 264° |
| 2026-05-07 11:45 | 50.26929 | -42.05047 | 40270 ft | 469 kts | 264° |
| 2026-05-07 11:45 | 50.25709 | -42.15017 | 40266 ft | 469 kts | 263° |
| 2026-05-07 11:46 | 50.24473 | -42.25040 | 40263 ft | 469 kts | 263° |
| 2026-05-07 11:46 | 50.23227 | -42.35073 | 40265 ft | 469 kts | 263° |
| 2026-05-07 11:47 | 50.21982 | -42.45025 | 40267 ft | 469 kts | 263° |
| 2026-05-07 11:47 | 50.20722 | -42.55027 | 40265 ft | 469 kts | 263° |
| 2026-05-07 11:48 | 50.19449 | -42.65049 | 40262 ft | 470 kts | 263° |
| 2026-05-07 11:48 | 50.18177 | -42.74992 | 40262 ft | 470 kts | 263° |
| 2026-05-07 11:49 | 50.16888 | -42.85004 | 40262 ft | 470 kts | 263° |
| 2026-05-07 11:49 | 50.15590 | -42.95004 | 40263 ft | 470 kts | 263° |
| 2026-05-07 11:50 | 50.14291 | -43.04946 | 40263 ft | 470 kts | 262° |
| 2026-05-07 11:50 | 50.12972 | -43.14973 | 40265 ft | 470 kts | 262° |
| 2026-05-07 11:51 | 50.11647 | -43.24969 | 40261 ft | 471 kts | 262° |
| 2026-05-07 11:51 | 50.10319 | -43.34917 | 40267 ft | 471 kts | 262° |
| 2026-05-07 11:52 | 50.08974 | -43.44922 | 40260 ft | 471 kts | 262° |
| 2026-05-07 11:52 | 50.07629 | -43.54866 | 40261 ft | 471 kts | 262° |
| 2026-05-07 11:53 | 50.06265 | -43.64876 | 40268 ft | 471 kts | 262° |
| 2026-05-07 11:53 | 50.04906 | -43.74783 | 40264 ft | 471 kts | 262° |
| 2026-05-07 11:54 | 50.03525 | -43.84780 | 40259 ft | 471 kts | 261° |
| 2026-05-07 11:54 | 50.02145 | -43.94703 | 40266 ft | 471 kts | 261° |
| 2026-05-07 11:55 | 50.00746 | -44.04697 | 40267 ft | 471 kts | 261° |
| 2026-05-07 11:55 | 49.99342 | -44.14659 | 40264 ft | 472 kts | 261° |
| 2026-05-07 11:56 | 49.97935 | -44.24571 | 40260 ft | 472 kts | 261° |
| 2026-05-07 11:56 | 49.96514 | -44.34526 | 40261 ft | 472 kts | 261° |
| 2026-05-07 11:57 | 49.95088 | -44.44443 | 40266 ft | 472 kts | 261° |
| 2026-05-07 11:57 | 49.93647 | -44.54400 | 40261 ft | 472 kts | 261° |
| 2026-05-07 11:58 | 49.92197 | -44.64360 | 40259 ft | 472 kts | 260° |
| 2026-05-07 11:58 | 49.90746 | -44.74258 | 40265 ft | 472 kts | 260° |
| 2026-05-07 11:59 | 49.89277 | -44.84216 | 40261 ft | 472 kts | 260° |
| 2026-05-07 11:59 | 49.87811 | -44.94091 | 40263 ft | 472 kts | 260° |
| 2026-05-07 12:00 | 49.86326 | -45.04028 | 40264 ft | 472 kts | 259° |
| 2026-05-07 12:00 | 49.84833 | -45.13958 | 40266 ft | 473 kts | 259° |
| 2026-05-07 12:01 | 49.83332 | -45.23881 | 40267 ft | 473 kts | 259° |
| 2026-05-07 12:01 | 49.81828 | -45.33760 | 40267 ft | 473 kts | 259° |
| 2026-05-07 12:02 | 49.80308 | -45.43677 | 40261 ft | 472 kts | 259° |
| 2026-05-07 12:02 | 49.78791 | -45.53524 | 40271 ft | 472 kts | 259° |
| 2026-05-07 12:03 | 49.77253 | -45.63440 | 40275 ft | 472 kts | 259° |
| 2026-05-07 12:03 | 49.75720 | -45.73259 | 40266 ft | 472 kts | 258° |
| 2026-05-07 12:04 | 49.74167 | -45.83157 | 40266 ft | 471 kts | 258° |
| 2026-05-07 12:04 | 49.72618 | -45.92965 | 40269 ft | 471 kts | 258° |
| 2026-05-07 12:05 | 49.71053 | -46.02810 | 40264 ft | 471 kts | 258° |
| 2026-05-07 12:05 | 49.69491 | -46.12586 | 40268 ft | 470 kts | 258° |
| 2026-05-07 12:06 | 49.67913 | -46.22399 | 40268 ft | 470 kts | 258° |
| 2026-05-07 12:06 | 49.66594 | -46.30560 | 40272 ft | 469 kts | 258° |
| 2026-05-07 12:07 | 49.65014 | -46.40283 | 40268 ft | 469 kts | 258° |
| 2026-05-07 12:07 | 49.63413 | -46.50077 | 40269 ft | 468 kts | 257° |
| 2026-05-07 12:08 | 49.61818 | -46.59779 | 40273 ft | 468 kts | 257° |
| 2026-05-07 12:08 | 49.60212 | -46.69490 | 40271 ft | 467 kts | 257° |
| 2026-05-07 12:09 | 49.58595 | -46.79214 | 40272 ft | 467 kts | 257° |
| 2026-05-07 12:09 | 49.56981 | -46.88866 | 40274 ft | 466 kts | 257° |
| 2026-05-07 12:10 | 49.55349 | -46.98568 | 40270 ft | 466 kts | 257° |
| 2026-05-07 12:10 | 49.53727 | -47.08157 | 40267 ft | 465 kts | 257° |
| 2026-05-07 12:11 | 49.52087 | -47.17798 | 40272 ft | 465 kts | 257° |
| 2026-05-07 12:11 | 49.50441 | -47.27424 | 40272 ft | 464 kts | 257° |
| 2026-05-07 12:12 | 49.48787 | -47.37047 | 40269 ft | 464 kts | 256° |
| 2026-05-07 12:12 | 49.47136 | -47.46594 | 40268 ft | 464 kts | 256° |
| 2026-05-07 12:13 | 49.45466 | -47.56199 | 40269 ft | 464 kts | 256° |
| 2026-05-07 12:13 | 49.43802 | -47.65718 | 40267 ft | 463 kts | 256° |
| 2026-05-07 12:14 | 49.42116 | -47.75312 | 40269 ft | 463 kts | 256° |
| 2026-05-07 12:14 | 49.40433 | -47.84836 | 40267 ft | 463 kts | 256° |
| 2026-05-07 12:15 | 49.38744 | -47.94350 | 40265 ft | 463 kts | 256° |
| 2026-05-07 12:15 | 49.37033 | -48.03926 | 40267 ft | 463 kts | 256° |
| 2026-05-07 12:16 | 49.35334 | -48.13396 | 40269 ft | 463 kts | 256° |
| 2026-05-07 12:16 | 49.33613 | -48.22933 | 40270 ft | 463 kts | 256° |